createdAt,value
2023-04-08T00:00:18.847Z,0.50
2023-04-08T00:02:52.444Z,0.60
2023-04-08T00:05:05.358Z,0.70
2023-04-08T00:07:18.117Z,0.80
2023-04-08T00:09:30.987Z,0.60
2023-04-08T00:11:44.184Z,0.60
2023-04-08T00:13:56.742Z,0.70
2023-04-08T00:16:10.107Z,0.60
2023-04-08T00:18:23.212Z,0.60
2023-04-08T00:20:35.912Z,0.70
2023-04-08T00:22:48.557Z,0.60
2023-04-08T00:25:01.779Z,0.50
2023-04-08T00:27:15.028Z,0.50
2023-04-08T00:29:27.781Z,0.60
2023-04-08T00:31:40.469Z,0.90
2023-04-08T00:33:53.362Z,0.80
2023-04-08T00:36:06.634Z,0.70
2023-04-08T00:38:19.684Z,0.60
2023-04-08T00:40:32.609Z,0.60
2023-04-08T00:42:45.769Z,0.60
2023-04-08T00:44:58.690Z,0.50
2023-04-08T00:47:15.568Z,0.80
2023-04-08T00:49:31.218Z,0.70
2023-04-08T00:51:44.635Z,0.60
2023-04-08T00:53:58.083Z,0.60
2023-04-08T00:56:11.148Z,0.80
2023-04-08T00:58:24.069Z,0.50
2023-04-08T01:00:39.977Z,0.60
2023-04-08T01:03:03.374Z,0.70
2023-04-08T01:05:27.131Z,0.60
2023-04-08T01:07:44.841Z,0.50
2023-04-08T01:10:01.069Z,0.90
2023-04-08T01:12:16.206Z,0.80
2023-04-08T01:14:32.049Z,0.90
2023-04-08T01:16:47.235Z,1.10
2023-04-08T01:19:00.758Z,1.00
2023-04-08T01:21:15.008Z,1.00
2023-04-08T01:23:36.922Z,0.80
2023-04-08T01:25:53.347Z,1.00
2023-04-08T01:28:08.582Z,1.00
2023-04-08T01:30:24.091Z,1.00
2023-04-08T01:32:38.577Z,0.80
2023-04-08T01:34:52.220Z,0.50
2023-04-08T01:37:05.698Z,0.60
2023-04-08T01:39:22.633Z,0.80
2023-04-08T01:41:37.511Z,0.90
2023-04-08T01:43:50.752Z,0.60
2023-04-08T01:46:05.026Z,1.00
2023-04-08T01:48:19.143Z,0.70
2023-04-08T01:50:33.057Z,0.50
2023-04-08T01:52:46.920Z,0.50
2023-04-08T01:55:00.972Z,0.50
2023-04-08T01:57:15.939Z,0.60
2023-04-08T01:59:34.978Z,0.50
2023-04-08T02:01:48.766Z,0.60
2023-04-08T02:04:02.872Z,0.70
2023-04-08T02:06:15.957Z,0.70
2023-04-08T02:08:29.781Z,0.40
2023-04-08T02:10:43.245Z,0.70
2023-04-08T02:12:56.380Z,0.50
2023-04-08T02:15:10.139Z,0.60
2023-04-08T02:17:28.600Z,0.60
2023-04-08T02:19:49.782Z,0.60
2023-04-08T02:22:08.648Z,0.50
2023-04-08T02:24:24.142Z,0.50
2023-04-08T02:26:40.545Z,0.60
2023-04-08T02:28:56.696Z,0.60
2023-04-08T02:31:11.924Z,0.50
2023-04-08T02:33:28.528Z,0.60
2023-04-08T02:35:43.667Z,0.60
2023-04-08T02:37:56.974Z,0.50
2023-04-08T02:40:29.589Z,0.60
2023-04-08T02:42:43.006Z,0.80
2023-04-08T02:44:56.352Z,0.60
2023-04-08T02:47:10.048Z,0.50
2023-04-08T02:49:22.959Z,0.50
2023-04-08T02:51:36.275Z,0.40
2023-04-08T02:53:49.475Z,0.50
2023-04-08T02:56:04.267Z,0.50
2023-04-08T02:58:16.875Z,0.60
2023-04-08T03:00:30.100Z,0.40
2023-04-08T03:02:43.073Z,0.50
2023-04-08T03:04:56.437Z,0.70
2023-04-08T03:07:09.350Z,0.60
2023-04-08T03:09:22.112Z,0.50
2023-04-08T03:11:35.166Z,0.50
2023-04-08T03:13:47.873Z,0.70
2023-04-08T03:16:00.661Z,0.60
2023-04-08T03:18:13.358Z,0.60
2023-04-08T03:20:26.471Z,0.60
2023-04-08T03:22:39.671Z,0.70
2023-04-08T03:24:52.698Z,0.60
2023-04-08T03:27:05.639Z,0.50
2023-04-08T03:29:18.590Z,0.70
2023-04-08T03:31:31.369Z,0.90
2023-04-08T03:33:44.524Z,0.70
2023-04-08T03:35:57.653Z,0.70
2023-04-08T03:38:10.563Z,0.60
2023-04-08T03:40:23.586Z,0.60
2023-04-08T03:42:36.585Z,0.70
2023-04-08T03:44:50.148Z,0.80
2023-04-08T03:47:03.264Z,0.50
2023-04-08T03:49:16.309Z,0.70
2023-04-08T03:51:29.740Z,0.60
2023-04-08T03:53:42.730Z,0.60
2023-04-08T03:55:56.918Z,0.70
2023-04-08T03:58:11.677Z,0.80
2023-04-08T04:00:24.734Z,0.70
2023-04-08T04:02:37.735Z,0.70
2023-04-08T04:04:50.985Z,0.70
2023-04-08T04:07:03.875Z,1.00
2023-04-08T04:09:17.962Z,0.70
2023-04-08T04:11:30.787Z,0.80
2023-04-08T04:13:43.462Z,0.90
2023-04-08T04:15:56.158Z,0.90
2023-04-08T04:18:09.313Z,0.80
2023-04-08T04:20:23.214Z,1.00
2023-04-08T04:22:37.058Z,0.80
2023-04-08T04:24:53.148Z,0.80
2023-04-08T04:27:06.862Z,0.90
2023-04-08T04:29:19.531Z,0.80
2023-04-08T04:31:32.445Z,1.10
2023-04-08T04:33:45.397Z,0.80
2023-04-08T04:35:58.340Z,0.90
2023-04-08T04:38:13.576Z,1.10
2023-04-08T04:40:26.328Z,0.90
2023-04-08T04:42:39.109Z,0.90
2023-04-08T04:44:51.920Z,1.00
2023-04-08T04:47:04.653Z,0.80
2023-04-08T04:49:17.207Z,1.00
2023-04-08T04:51:30.488Z,1.00
2023-04-08T04:53:43.683Z,1.10
2023-04-08T04:55:56.422Z,0.90
2023-04-08T04:58:09.097Z,1.10
2023-04-08T05:00:22.156Z,1.30
2023-04-08T05:02:35.050Z,1.40
2023-04-08T05:04:48.040Z,1.00
2023-04-08T05:07:02.287Z,1.10
2023-04-08T05:09:16.665Z,1.10
2023-04-08T05:11:29.378Z,1.20
2023-04-08T05:13:42.272Z,1.40
2023-04-08T05:15:56.259Z,1.30
2023-04-08T05:18:08.918Z,1.20
2023-04-08T05:20:21.561Z,1.30
2023-04-08T05:22:34.239Z,1.00
2023-04-08T05:24:47.401Z,1.10
2023-04-08T05:27:00.113Z,1.10
2023-04-08T05:29:12.883Z,1.00
2023-04-08T05:31:26.208Z,0.90
2023-04-08T05:33:38.962Z,1.10
2023-04-08T05:35:52.319Z,1.00
2023-04-08T05:38:04.999Z,1.00
2023-04-08T05:40:18.398Z,1.00
2023-04-08T05:42:33.280Z,1.60
2023-04-08T05:44:46.879Z,0.90
2023-04-08T05:47:01.463Z,0.90
2023-04-08T05:49:14.192Z,1.50
2023-04-08T05:51:26.880Z,1.10
2023-04-08T05:53:39.427Z,1.10
2023-04-08T05:55:52.515Z,1.00
2023-04-08T05:58:05.734Z,1.40
2023-04-08T06:00:19.282Z,1.40
2023-04-08T06:02:32.437Z,1.10
2023-04-08T06:04:46.000Z,1.30
2023-04-08T06:07:00.949Z,1.20
2023-04-08T06:09:14.292Z,1.10
2023-04-08T06:11:27.025Z,1.10
2023-04-08T06:13:40.220Z,1.30
2023-04-08T06:15:53.313Z,0.90
2023-04-08T06:18:06.112Z,1.20
2023-04-08T06:20:20.227Z,1.30
2023-04-08T06:22:33.437Z,1.00
2023-04-08T06:24:46.145Z,1.50
2023-04-08T06:26:59.739Z,1.60
2023-04-08T06:29:12.813Z,1.20
2023-04-08T06:31:26.139Z,1.70
2023-04-08T06:33:39.014Z,1.50
2023-04-08T06:35:51.966Z,1.50
2023-04-08T06:38:05.043Z,1.10
2023-04-08T06:40:18.238Z,1.20
2023-04-08T06:42:30.988Z,1.00
2023-04-08T06:45:03.530Z,1.10
2023-04-08T06:47:16.217Z,1.20
2023-04-08T06:49:29.964Z,1.20
2023-04-08T06:51:43.160Z,1.10
2023-04-08T06:53:55.875Z,1.20
2023-04-08T06:56:10.203Z,1.40
2023-04-08T06:58:24.884Z,1.30
2023-04-08T07:00:38.364Z,1.40
2023-04-08T07:02:51.688Z,1.10
2023-04-08T07:05:05.119Z,1.10
2023-04-08T07:07:19.594Z,1.20
2023-04-08T07:09:32.764Z,1.10
2023-04-08T07:11:46.477Z,1.10
2023-04-08T07:13:59.844Z,1.30
2023-04-08T07:16:13.457Z,1.30
2023-04-08T07:18:27.420Z,1.10
2023-04-08T07:20:43.145Z,1.10
2023-04-08T07:22:56.453Z,0.80
2023-04-08T07:25:10.688Z,1.60
2023-04-08T07:27:23.480Z,1.10
2023-04-08T07:29:37.075Z,1.10
2023-04-08T07:31:51.004Z,1.40
2023-04-08T07:34:03.753Z,1.20
2023-04-08T07:36:19.418Z,0.90
2023-04-08T07:38:32.823Z,1.30
2023-04-08T07:40:45.403Z,1.10
2023-04-08T07:42:58.023Z,1.10
2023-04-08T07:45:11.718Z,1.10
2023-04-08T07:47:24.313Z,1.10
2023-04-08T07:49:37.806Z,1.50
2023-04-08T07:51:50.307Z,1.20
2023-04-08T07:54:04.174Z,1.10
2023-04-08T07:56:21.195Z,1.00
2023-04-08T07:58:35.040Z,1.20
2023-04-08T08:00:48.764Z,1.10
2023-04-08T08:03:01.871Z,1.10
2023-04-08T08:05:15.529Z,1.00
2023-04-08T08:07:28.805Z,1.10
2023-04-08T08:09:41.875Z,1.00
2023-04-08T08:11:55.302Z,1.20
2023-04-08T08:14:09.042Z,1.40
2023-04-08T08:16:22.098Z,0.90
2023-04-08T08:18:34.836Z,1.00
2023-04-08T08:20:47.720Z,1.20
2023-04-08T08:23:00.947Z,1.00
2023-04-08T08:25:14.614Z,1.10
2023-04-08T08:27:27.356Z,1.20
2023-04-08T08:29:42.333Z,1.20
2023-04-08T08:31:55.910Z,0.90
2023-04-08T08:34:09.312Z,1.20
2023-04-08T08:36:22.405Z,1.20
2023-04-08T08:38:35.248Z,1.20
2023-04-08T08:40:48.272Z,1.00
2023-04-08T08:43:02.701Z,3.00
2023-04-08T08:45:16.268Z,1.00
2023-04-08T08:47:29.216Z,1.20
2023-04-08T08:49:42.751Z,1.60
2023-04-08T08:51:57.822Z,1.10
2023-04-08T08:54:11.861Z,0.90
2023-04-08T08:56:25.701Z,0.90
2023-04-08T08:58:40.187Z,1.30
2023-04-08T09:00:53.837Z,1.80
2023-04-08T09:03:21.191Z,1.50
2023-04-08T09:05:36.979Z,1.00
2023-04-08T09:07:50.289Z,0.90
2023-04-08T09:10:05.444Z,1.20
2023-04-08T09:12:18.585Z,0.80
2023-04-08T09:14:31.391Z,1.00
2023-04-08T09:16:48.720Z,1.30
2023-04-08T09:19:11.499Z,1.20
2023-04-08T09:21:28.585Z,1.30
2023-04-08T09:23:49.262Z,1.40
2023-04-08T09:26:10.315Z,1.40
2023-04-08T09:28:27.327Z,1.20
2023-04-08T09:30:40.219Z,1.10
2023-04-08T09:32:56.690Z,1.00
2023-04-08T09:35:10.455Z,1.40
2023-04-08T09:37:23.133Z,1.30
2023-04-08T09:39:37.040Z,1.00
2023-04-08T09:41:51.669Z,1.00
2023-04-08T09:44:06.100Z,1.10
2023-04-08T09:46:20.394Z,1.20
2023-04-08T09:48:39.821Z,1.30
2023-04-08T09:50:54.246Z,0.70
2023-04-08T09:53:23.471Z,1.00
2023-04-08T09:55:39.499Z,0.90
2023-04-08T09:58:02.385Z,1.00
2023-04-08T10:00:19.393Z,1.40
2023-04-08T10:02:42.096Z,0.90
2023-04-08T10:04:58.303Z,0.90
2023-04-08T10:07:13.094Z,0.80
2023-04-08T10:09:26.501Z,1.10
2023-04-08T10:11:40.047Z,1.20
2023-04-08T10:13:53.447Z,1.20
2023-04-08T10:16:25.712Z,0.90
2023-04-08T10:18:39.585Z,0.90
2023-04-08T10:20:52.727Z,1.10
2023-04-08T10:23:05.677Z,1.20
2023-04-08T10:25:37.806Z,1.40
2023-04-08T10:27:51.085Z,1.00
2023-04-08T10:30:03.704Z,1.50
2023-04-08T10:32:33.801Z,0.80
2023-04-08T10:34:57.228Z,1.10
2023-04-08T10:37:11.879Z,1.10
2023-04-08T10:39:25.374Z,1.00
2023-04-08T10:41:38.137Z,1.00
2023-04-08T10:43:53.423Z,1.10
2023-04-08T10:46:06.235Z,1.50
2023-04-08T10:48:24.158Z,1.20
2023-04-08T10:50:36.777Z,1.70
2023-04-08T10:52:55.014Z,1.10
2023-04-08T10:55:09.734Z,1.10
2023-04-08T10:57:29.759Z,1.30
2023-04-08T10:59:42.816Z,1.10
2023-04-08T11:01:56.563Z,1.10
2023-04-08T11:04:16.767Z,1.00
2023-04-08T11:06:29.515Z,1.30
2023-04-08T11:08:43.867Z,1.40
2023-04-08T11:10:58.206Z,1.20
2023-04-08T11:13:12.712Z,1.20
2023-04-08T11:15:26.441Z,1.00
2023-04-08T11:17:40.641Z,1.10
2023-04-08T11:19:53.525Z,1.20
2023-04-08T11:22:06.732Z,1.40
2023-04-08T11:24:19.809Z,1.50
2023-04-08T11:26:33.714Z,1.00
2023-04-08T11:28:47.587Z,1.00
2023-04-08T11:31:01.034Z,1.10
2023-04-08T11:33:13.802Z,1.00
2023-04-08T11:35:26.548Z,1.20
2023-04-08T11:37:45.912Z,1.10
2023-04-08T11:40:00.988Z,1.30
2023-04-08T11:42:29.334Z,1.40
2023-04-08T11:44:42.448Z,1.40
2023-04-08T11:47:00.458Z,1.50
2023-04-08T11:49:14.407Z,1.40
2023-04-08T11:51:28.295Z,1.30
2023-04-08T11:53:41.276Z,1.40
2023-04-08T11:55:54.244Z,1.30
2023-04-08T11:58:10.474Z,1.40
2023-04-08T12:00:24.068Z,1.00
2023-04-08T12:02:37.260Z,1.00
2023-04-08T12:04:50.321Z,1.10
2023-04-08T12:07:03.113Z,1.10
2023-04-08T12:09:16.166Z,1.40
2023-04-08T12:11:29.429Z,1.10
2023-04-08T12:13:42.881Z,1.20
2023-04-08T12:15:56.161Z,0.90
2023-04-08T12:18:09.431Z,1.30
2023-04-08T12:20:22.389Z,1.00
2023-04-08T12:22:35.587Z,1.00
2023-04-08T12:24:48.553Z,1.20
2023-04-08T12:27:03.667Z,1.10
2023-04-08T12:29:16.270Z,1.40
2023-04-08T12:31:29.465Z,1.40
2023-04-08T12:33:42.474Z,1.50
2023-04-08T12:35:56.124Z,1.10
2023-04-08T12:38:09.272Z,1.10
2023-04-08T12:40:22.628Z,1.30
2023-04-08T12:42:36.124Z,1.00
2023-04-08T12:44:53.056Z,1.20
2023-04-08T12:47:06.046Z,1.20
2023-04-08T12:49:19.233Z,1.20
2023-04-08T12:51:33.392Z,1.10
2023-04-08T12:53:46.402Z,1.00
2023-04-08T12:56:00.105Z,1.40
2023-04-08T12:58:13.367Z,1.40
2023-04-08T13:00:26.013Z,1.40
2023-04-08T13:02:38.989Z,1.20
2023-04-08T13:04:53.378Z,1.50
2023-04-08T13:07:06.192Z,1.30
2023-04-08T13:09:19.552Z,1.10
2023-04-08T13:11:32.260Z,1.50
2023-04-08T13:13:45.112Z,1.40
2023-04-08T13:15:58.160Z,2.30
2023-04-08T13:18:10.954Z,1.70
2023-04-08T13:20:26.807Z,1.40
2023-04-08T13:22:39.370Z,1.30
2023-04-08T13:24:52.457Z,1.30
2023-04-08T13:27:05.388Z,1.30
2023-04-08T13:29:18.032Z,1.20
2023-04-08T13:31:31.016Z,1.10
2023-04-08T13:33:43.681Z,1.50
2023-04-08T13:35:56.591Z,1.30
2023-04-08T13:38:09.625Z,1.00
2023-04-08T13:40:22.465Z,1.20
2023-04-08T13:42:35.346Z,1.30
2023-04-08T13:44:47.799Z,1.20
2023-04-08T13:47:00.622Z,1.00
2023-04-08T13:49:13.003Z,1.10
2023-04-08T13:51:25.517Z,1.20
2023-04-08T13:53:38.052Z,1.00
2023-04-08T13:55:56.175Z,1.00
2023-04-08T13:58:21.202Z,1.00
2023-04-08T14:00:36.650Z,1.20
2023-04-08T14:02:49.579Z,1.30
2023-04-08T14:05:02.410Z,1.00
2023-04-08T14:07:15.407Z,0.90
2023-04-08T14:09:28.345Z,1.00
2023-04-08T14:11:41.153Z,1.20
2023-04-08T14:13:54.203Z,1.00
2023-04-08T14:16:08.424Z,0.90
2023-04-08T14:18:21.840Z,1.20
2023-04-08T14:20:36.563Z,1.00
2023-04-08T14:22:49.614Z,1.00
2023-04-08T14:25:02.516Z,0.80
2023-04-08T14:27:15.364Z,1.00
2023-04-08T14:29:28.471Z,1.10
2023-04-08T14:31:41.546Z,0.90
2023-04-08T14:33:54.504Z,0.90
2023-04-08T14:36:07.684Z,1.00
2023-04-08T14:38:21.731Z,0.90
2023-04-08T14:40:36.525Z,0.90
2023-04-08T14:42:51.028Z,0.80
2023-04-08T14:45:04.526Z,1.20
2023-04-08T14:47:17.320Z,0.80
2023-04-08T14:49:30.757Z,1.60
2023-04-08T14:51:44.179Z,1.00
2023-04-08T14:53:56.829Z,1.00
2023-04-08T14:56:11.082Z,1.00
2023-04-08T14:58:23.529Z,1.10
2023-04-08T15:00:37.480Z,1.00
2023-04-08T15:02:50.576Z,0.90
2023-04-08T15:05:03.291Z,1.00
2023-04-08T15:07:16.392Z,1.20
2023-04-08T15:09:29.235Z,1.20
2023-04-08T15:11:42.064Z,1.10
2023-04-08T15:13:55.174Z,1.20
2023-04-08T15:16:08.187Z,1.50
2023-04-08T15:18:20.988Z,1.00
2023-04-08T15:20:34.129Z,0.90
2023-04-08T15:22:47.828Z,0.90
2023-04-08T15:25:01.132Z,0.80
2023-04-08T15:27:14.033Z,0.80
2023-04-08T15:29:28.233Z,0.80
2023-04-08T15:31:41.462Z,1.00
2023-04-08T15:33:55.238Z,0.90
2023-04-08T15:36:08.395Z,0.80
2023-04-08T15:38:21.581Z,0.80
2023-04-08T15:40:35.989Z,1.00
2023-04-08T15:42:49.283Z,1.20
2023-04-08T15:45:02.559Z,0.90
2023-04-08T15:47:15.628Z,0.80
2023-04-08T15:49:28.641Z,0.80
2023-04-08T15:51:45.531Z,1.00
2023-04-08T15:53:58.681Z,0.70
2023-04-08T15:56:15.240Z,1.10
2023-04-08T15:58:28.619Z,1.00
2023-04-08T16:00:41.799Z,0.70
2023-04-08T16:02:55.691Z,1.10
2023-04-08T16:05:08.700Z,1.20
2023-04-08T16:07:21.432Z,0.90
2023-04-08T16:09:34.220Z,0.80
2023-04-08T16:11:47.607Z,1.00
2023-04-08T16:14:00.576Z,1.00
2023-04-08T16:16:13.784Z,1.10
2023-04-08T16:18:27.967Z,0.80
2023-04-08T16:20:42.996Z,0.90
2023-04-08T16:22:56.201Z,1.10
2023-04-08T16:25:10.435Z,1.20
2023-04-08T16:27:23.130Z,0.90
2023-04-08T16:29:36.041Z,1.60
2023-04-08T16:31:49.924Z,1.00
2023-04-08T16:34:04.292Z,0.90
2023-04-08T16:36:17.011Z,0.90
2023-04-08T16:38:30.577Z,0.90
2023-04-08T16:40:43.451Z,0.90
2023-04-08T16:42:56.136Z,1.10
2023-04-08T16:45:11.697Z,0.90
2023-04-08T16:47:24.969Z,1.50
2023-04-08T16:49:37.999Z,0.90
2023-04-08T16:51:50.841Z,1.30
2023-04-08T16:54:04.474Z,0.90
2023-04-08T16:56:20.943Z,1.00
2023-04-08T16:58:33.887Z,1.00
2023-04-08T17:00:47.809Z,0.80
2023-04-08T17:03:01.829Z,0.80
2023-04-08T17:05:15.440Z,1.10
2023-04-08T17:07:29.259Z,0.70
2023-04-08T17:09:42.500Z,0.90
2023-04-08T17:11:56.844Z,1.10
2023-04-08T17:14:09.506Z,1.10
2023-04-08T17:16:22.640Z,0.80
2023-04-08T17:18:35.580Z,1.00
2023-04-08T17:20:48.522Z,1.80
2023-04-08T17:23:01.792Z,0.90
2023-04-08T17:25:16.746Z,0.80
2023-04-08T17:27:30.090Z,0.90
2023-04-08T17:29:43.532Z,0.70
2023-04-08T17:31:56.386Z,0.90
2023-04-08T17:34:09.536Z,1.00
2023-04-08T17:36:22.633Z,0.80
2023-04-08T17:38:36.816Z,0.80
2023-04-08T17:40:49.804Z,0.90
2023-04-08T17:43:03.759Z,0.90
2023-04-08T17:45:17.492Z,0.80
2023-04-08T17:47:30.401Z,0.80
2023-04-08T17:49:43.762Z,0.60
2023-04-08T17:51:57.281Z,0.80
2023-04-08T17:54:10.177Z,0.80
2023-04-08T17:56:23.244Z,1.10
2023-04-08T17:58:35.811Z,1.10
2023-04-08T18:00:48.704Z,0.90
2023-04-08T18:03:02.152Z,1.20
2023-04-08T18:05:17.570Z,0.70
2023-04-08T18:07:30.047Z,0.70
2023-04-08T18:09:43.487Z,0.70
2023-04-08T18:11:56.676Z,1.00
2023-04-08T18:14:09.655Z,0.80
2023-04-08T18:16:26.464Z,0.70
2023-04-08T18:18:42.568Z,0.70
2023-04-08T18:20:55.545Z,0.90
2023-04-08T18:23:08.467Z,1.00
2023-04-08T18:25:23.500Z,0.70
2023-04-08T18:27:37.089Z,0.80
2023-04-08T18:29:50.199Z,1.50
2023-04-08T18:32:02.671Z,1.50
2023-04-08T18:34:15.376Z,1.20
2023-04-08T18:36:30.949Z,1.60
2023-04-08T18:38:45.746Z,2.20
2023-04-08T18:40:58.491Z,2.40
2023-04-08T18:43:13.141Z,2.70
2023-04-08T18:45:25.887Z,2.30
2023-04-08T18:47:38.857Z,2.20
2023-04-08T18:49:51.560Z,2.60
2023-04-08T18:52:05.106Z,2.20
2023-04-08T18:54:18.909Z,2.40
2023-04-08T18:56:31.594Z,3.10
2023-04-08T18:58:44.636Z,2.40
2023-04-08T19:00:58.798Z,3.00
2023-04-08T19:03:12.028Z,2.60
2023-04-08T19:05:25.255Z,4.10
2023-04-08T19:07:38.051Z,4.90
2023-04-08T19:09:50.856Z,4.80
2023-04-08T19:12:03.614Z,4.90
2023-04-08T19:14:16.590Z,4.80
2023-04-08T19:16:29.904Z,4.10
2023-04-08T19:18:42.705Z,3.20
2023-04-08T19:20:55.611Z,2.20
2023-04-08T19:23:08.833Z,2.50
2023-04-08T19:25:21.711Z,2.20
2023-04-08T19:27:34.854Z,2.30
2023-04-08T19:29:48.859Z,2.40
2023-04-08T19:32:01.923Z,3.00
2023-04-08T19:34:14.888Z,3.90
2023-04-08T19:36:27.430Z,3.40
2023-04-08T19:38:40.178Z,4.10
2023-04-08T19:40:54.171Z,3.70
2023-04-08T19:43:06.975Z,3.40
2023-04-08T19:45:21.018Z,2.30
2023-04-08T19:47:34.150Z,2.30
2023-04-08T19:49:47.465Z,2.00
2023-04-08T19:52:00.311Z,2.00
2023-04-08T19:54:15.235Z,1.80
2023-04-08T19:56:29.349Z,1.20
2023-04-08T19:58:42.032Z,1.30
2023-04-08T20:00:56.086Z,1.00
2023-04-08T20:03:10.249Z,1.30
2023-04-08T20:05:24.313Z,0.90
2023-04-08T20:07:36.867Z,1.10
2023-04-08T20:09:49.588Z,0.90
2023-04-08T20:12:05.633Z,0.90
2023-04-08T20:14:18.237Z,1.00
2023-04-08T20:16:31.805Z,0.90
2023-04-08T20:18:44.924Z,1.00
2023-04-08T20:20:57.862Z,1.20
2023-04-08T20:23:11.681Z,0.90
2023-04-08T20:25:24.678Z,1.10
2023-04-08T20:27:37.702Z,0.90
2023-04-08T20:29:50.471Z,1.50
2023-04-08T20:32:04.137Z,0.80
2023-04-08T20:34:17.199Z,0.90
2023-04-08T20:36:30.064Z,0.90
2023-04-08T20:38:43.628Z,1.20
2023-04-08T20:40:56.725Z,0.80
2023-04-08T20:43:09.538Z,0.90
2023-04-08T20:45:22.323Z,0.90
2023-04-08T20:47:35.235Z,1.20
2023-04-08T20:49:48.459Z,1.00
2023-04-08T20:52:01.219Z,1.00
2023-04-08T20:54:14.204Z,1.00
2023-04-08T20:56:27.501Z,1.00
2023-04-08T20:58:40.363Z,0.80
2023-04-08T21:00:53.448Z,0.90
2023-04-08T21:03:07.236Z,0.90
2023-04-08T21:05:20.438Z,0.70
2023-04-08T21:07:33.176Z,0.90
2023-04-08T21:09:46.354Z,0.80
2023-04-08T21:11:59.665Z,1.10
2023-04-08T21:14:12.415Z,0.90
2023-04-08T21:16:30.123Z,0.70
2023-04-08T21:18:44.045Z,0.70
2023-04-08T21:20:57.220Z,0.80
2023-04-08T21:23:10.421Z,1.00
2023-04-08T21:25:23.596Z,0.90
2023-04-08T21:27:36.887Z,0.70
2023-04-08T21:29:49.909Z,0.90
2023-04-08T21:32:03.803Z,0.80
2023-04-08T21:34:17.536Z,1.10
2023-04-08T21:36:31.926Z,0.90
2023-04-08T21:38:44.960Z,1.00
2023-04-08T21:40:57.438Z,1.20
2023-04-08T21:43:09.937Z,1.00
2023-04-08T21:45:23.186Z,0.80
2023-04-08T21:47:37.244Z,0.90
2023-04-08T21:49:51.248Z,1.10
2023-04-08T21:52:04.308Z,0.70
2023-04-08T21:54:17.468Z,0.90
2023-04-08T21:56:31.524Z,0.70
2023-04-08T21:58:44.570Z,0.70
2023-04-08T22:00:57.589Z,0.80
2023-04-08T22:03:11.798Z,1.40
2023-04-08T22:05:25.391Z,0.90
2023-04-08T22:07:40.935Z,1.10
2023-04-08T22:09:53.896Z,0.90
2023-04-08T22:12:06.819Z,0.70
2023-04-08T22:14:19.552Z,1.10
2023-04-08T22:16:33.168Z,1.00
2023-04-08T22:18:45.900Z,0.90
2023-04-08T22:20:58.786Z,0.80
2023-04-08T22:23:11.762Z,0.90
2023-04-08T22:25:24.775Z,1.00
2023-04-08T22:27:38.485Z,0.80
2023-04-08T22:29:51.631Z,0.60
2023-04-08T22:32:04.542Z,0.90
2023-04-08T22:34:17.132Z,0.90
2023-04-08T22:36:30.170Z,1.00
2023-04-08T22:38:42.922Z,0.90
2023-04-08T22:40:56.848Z,1.10
2023-04-08T22:43:09.483Z,1.30
2023-04-08T22:45:22.577Z,0.70
2023-04-08T22:47:36.108Z,1.00
2023-04-08T22:49:49.179Z,1.20
2023-04-08T22:52:02.388Z,0.90
2023-04-08T22:54:15.080Z,1.10
2023-04-08T22:56:29.824Z,1.00
2023-04-08T22:58:42.418Z,0.80
2023-04-08T23:00:55.222Z,1.30
2023-04-08T23:03:07.864Z,1.00
2023-04-08T23:05:20.740Z,0.90
2023-04-08T23:07:33.919Z,0.80
2023-04-08T23:09:46.592Z,1.10
2023-04-08T23:11:59.430Z,0.90
2023-04-08T23:14:12.705Z,0.90
2023-04-08T23:16:25.795Z,1.00
2023-04-08T23:18:38.680Z,0.90
2023-04-08T23:20:56.584Z,1.00
2023-04-08T23:23:09.113Z,1.10
2023-04-08T23:25:21.975Z,0.80
2023-04-08T23:27:37.200Z,0.70
2023-04-08T23:29:50.124Z,0.70
2023-04-08T23:32:02.754Z,0.80
2023-04-08T23:34:15.471Z,0.70
2023-04-08T23:36:28.671Z,1.30
2023-04-08T23:38:42.018Z,1.30
2023-04-08T23:40:55.723Z,0.80
2023-04-08T23:43:08.560Z,0.80
2023-04-08T23:45:21.375Z,1.40
2023-04-08T23:47:34.194Z,1.00
2023-04-08T23:49:49.989Z,0.90
2023-04-08T23:52:02.533Z,1.00
2023-04-08T23:54:15.107Z,0.80
2023-04-08T23:56:28.413Z,0.90
2023-04-08T23:58:41.711Z,0.70
